Portada
METAR-TAF:

METAR-TAF

Aeroports :

Chandigar, Índia

latitud: 30-40-29N, longitud: 76-47-26E, altitud: 314 m

METAR: manca

Hora: 22:21 (16:51 UTC)

Pronòstic

L'informe es va fer fa 7 hores i 21 minuts, a les 09:30 UTC
Pronòstic vàlid del 23 a les 12 UTC al 23 a les 24 UTC
Vent 10 kt del Sud-Est amb ràfegues de 20 kt
Visibilitat: 6000 m
Escasses núvols a una alçada de 3000 ft
Cel ennuvolat a una alçada de 9000 ft
Temporalment
l' 23 a les 14 UTC al 23 a les 17 UTC
Escasses núvols a una alçada de 3000 ft, Cumulonimbus.
Cel ennuvolat a una alçada de 9000 ft
tempesta, pluja

TAF: VICG 230930Z 2312/2324 14010G20KT 6000 FEW030 BKN090 TEMPO 2314/2317 -TSRA FEW030CB BKN090

Observacions i pronòstics meteorològics de més de 4000 aeroports (METAR i TAF).

Les estacions disponibles són els punts grocs i vermells al mapa.

Posi el ratolí al punt desitjat per veure el nom de l'estació.

Feu clic per veure les observacions i els pronòstics meteorològics.

Per canviar el mapa: feu clic els botons verds amb una creu de color negre per apropar; al botó verd amb un guió per allunyar la imatge; o en les fletxes verdes per a mapes adjacents.


METAR-TAF: